<?xml version="1.0" encoding="UTF-8" standalone="no" ?>
<gpx xmlns="http://www.topografix.com/GPX/1/1" xmlns:xsi="http://www.w3.org/2001/XMLSchema-instance" xsi:schemaLocation="http://www.topografix.com/GPX/1/1 http://www.topografix.com/GPX/1/1/gpx.xsd" version="1.1" creator="VisuGPX - https://www.visugpx.com">
  <metadata>
    <name>Clermont-Ferrand - Massat - Pau par François</name>
    <desc><![CDATA[Trajet effectué par François sur la "Diagonale du vide" en aout 2020]]></desc>
  </metadata>
  <trk>
    <name><![CDATA[route103]]></name>
    <trkseg>
      <trkpt lat="45.33508" lon="3.3652">
        <ele>474.1</ele>
        <time>2020-08-16T06:22:16Z</time>
      </trkpt>
      <trkpt lat="45.33417" lon="3.3653">
        <ele>472.8</ele>
        <time>2020-08-16T06:22:41Z</time>
      </trkpt>
      <trkpt lat="45.3333" lon="3.36565">
        <ele>472.2</ele>
        <time>2020-08-16T06:23:06Z</time>
      </trkpt>
      <trkpt lat="45.33239" lon="3.36604">
        <ele>472.1</ele>
        <time>2020-08-16T06:23:36Z</time>
      </trkpt>
      <trkpt lat="45.33153" lon="3.3664">
        <ele>472.2</ele>
        <time>2020-08-16T06:24:01Z</time>
      </trkpt>
      <trkpt lat="45.33067" lon="3.36677">
        <ele>472.1</ele>
        <time>2020-08-16T06:24:26Z</time>
      </trkpt>
      <trkpt lat="45.32976" lon="3.36715">
        <ele>471.8</ele>
        <time>2020-08-16T06:24:51Z</time>
      </trkpt>
      <trkpt lat="45.32876" lon="3.36758">
        <ele>471.9</ele>
        <time>2020-08-16T06:25:16Z</time>
      </trkpt>
      <trkpt lat="45.32781" lon="3.36796">
        <ele>472.1</ele>
        <time>2020-08-16T06:25:41Z</time>
      </trkpt>
      <trkpt lat="45.32686" lon="3.36838">
        <ele>472.1</ele>
        <time>2020-08-16T06:26:06Z</time>
      </trkpt>
      <trkpt lat="45.32589" lon="3.36879">
        <ele>472.4</ele>
        <time>2020-08-16T06:26:31Z</time>
      </trkpt>
      <trkpt lat="45.3249" lon="3.36921">
        <ele>472.6</ele>
        <time>2020-08-16T06:26:56Z</time>
      </trkpt>
      <trkpt lat="45.32391" lon="3.36962">
        <ele>472.9</ele>
        <time>2020-08-16T06:27:21Z</time>
      </trkpt>
      <trkpt lat="45.32295" lon="3.37003">
        <ele>473</ele>
        <time>2020-08-16T06:27:46Z</time>
      </trkpt>
      <trkpt lat="45.32208" lon="3.37037">
        <ele>473.2</ele>
        <time>2020-08-16T06:28:11Z</time>
      </trkpt>
      <trkpt lat="45.32118" lon="3.37076">
        <ele>473.7</ele>
        <time>2020-08-16T06:28:36Z</time>
      </trkpt>
      <trkpt lat="45.32105" lon="3.37221">
        <ele>473.4</ele>
        <time>2020-08-16T06:29:01Z</time>
      </trkpt>
      <trkpt lat="45.32024" lon="3.3728">
        <ele>472.8</ele>
        <time>2020-08-16T06:29:16Z</time>
      </trkpt>
      <trkpt lat="45.31938" lon="3.3734">
        <ele>472</ele>
        <time>2020-08-16T06:29:31Z</time>
      </trkpt>
      <trkpt lat="45.31882" lon="3.37477">
        <ele>470.9</ele>
        <time>2020-08-16T06:29:51Z</time>
      </trkpt>
      <trkpt lat="45.31841" lon="3.37615">
        <ele>469</ele>
        <time>2020-08-16T06:30:11Z</time>
      </trkpt>
      <trkpt lat="45.31805" lon="3.37752">
        <ele>468.5</ele>
        <time>2020-08-16T06:30:31Z</time>
      </trkpt>
      <trkpt lat="45.3177" lon="3.3788">
        <ele>467.7</ele>
        <time>2020-08-16T06:30:51Z</time>
      </trkpt>
      <trkpt lat="45.31735" lon="3.38007">
        <ele>467.6</ele>
        <time>2020-08-16T06:31:11Z</time>
      </trkpt>
      <trkpt lat="45.31699" lon="3.38134">
        <ele>467.8</ele>
        <time>2020-08-16T06:31:31Z</time>
      </trkpt>
      <trkpt lat="45.31665" lon="3.38257">
        <ele>467.6</ele>
        <time>2020-08-16T06:31:51Z</time>
      </trkpt>
      <trkpt lat="45.31633" lon="3.38376">
        <ele>467.1</ele>
        <time>2020-08-16T06:32:11Z</time>
      </trkpt>
      <trkpt lat="45.31594" lon="3.38519">
        <ele>466.9</ele>
        <time>2020-08-16T06:32:36Z</time>
      </trkpt>
      <trkpt lat="45.31555" lon="3.3866">
        <ele>466.9</ele>
        <time>2020-08-16T06:33:01Z</time>
      </trkpt>
      <trkpt lat="45.31513" lon="3.38798">
        <ele>467</ele>
        <time>2020-08-16T06:33:26Z</time>
      </trkpt>
      <trkpt lat="45.31457" lon="3.38929">
        <ele>467.1</ele>
        <time>2020-08-16T06:33:51Z</time>
      </trkpt>
      <trkpt lat="45.31392" lon="3.39043">
        <ele>467.6</ele>
        <time>2020-08-16T06:34:16Z</time>
      </trkpt>
      <trkpt lat="45.31324" lon="3.3914">
        <ele>467.8</ele>
        <time>2020-08-16T06:34:42Z</time>
      </trkpt>
      <trkpt lat="45.31247" lon="3.39224">
        <ele>468</ele>
        <time>2020-08-16T06:35:07Z</time>
      </trkpt>
      <trkpt lat="45.31166" lon="3.39292">
        <ele>468.1</ele>
        <time>2020-08-16T06:35:32Z</time>
      </trkpt>
      <trkpt lat="45.3108" lon="3.39346">
        <ele>468.1</ele>
        <time>2020-08-16T06:35:57Z</time>
      </trkpt>
      <trkpt lat="45.3099" lon="3.39386">
        <ele>467.9</ele>
        <time>2020-08-16T06:36:22Z</time>
      </trkpt>
      <trkpt lat="45.309" lon="3.39412">
        <ele>467.9</ele>
        <time>2020-08-16T06:36:47Z</time>
      </trkpt>
      <trkpt lat="45.30807" lon="3.39445">
        <ele>467.5</ele>
        <time>2020-08-16T06:37:12Z</time>
      </trkpt>
      <trkpt lat="45.30714" lon="3.3948">
        <ele>467.3</ele>
        <time>2020-08-16T06:37:37Z</time>
      </trkpt>
      <trkpt lat="45.30622" lon="3.39516">
        <ele>467.1</ele>
        <time>2020-08-16T06:38:02Z</time>
      </trkpt>
      <trkpt lat="45.30532" lon="3.39554">
        <ele>467.1</ele>
        <time>2020-08-16T06:38:27Z</time>
      </trkpt>
      <trkpt lat="45.30441" lon="3.39596">
        <ele>467</ele>
        <time>2020-08-16T06:38:52Z</time>
      </trkpt>
      <trkpt lat="45.30352" lon="3.39641">
        <ele>466.9</ele>
        <time>2020-08-16T06:39:17Z</time>
      </trkpt>
      <trkpt lat="45.30264" lon="3.39687">
        <ele>466.9</ele>
        <time>2020-08-16T06:39:42Z</time>
      </trkpt>
      <trkpt lat="45.30175" lon="3.39737">
        <ele>466.8</ele>
        <time>2020-08-16T06:40:07Z</time>
      </trkpt>
      <trkpt lat="45.30083" lon="3.39794">
        <ele>466.9</ele>
        <time>2020-08-16T06:40:32Z</time>
      </trkpt>
      <trkpt lat="45.29992" lon="3.3981">
        <ele>467.1</ele>
        <time>2020-08-16T06:40:57Z</time>
      </trkpt>
      <trkpt lat="45.30022" lon="3.39951">
        <ele>466.9</ele>
        <time>2020-08-16T06:41:32Z</time>
      </trkpt>
      <trkpt lat="45.30081" lon="3.40058">
        <ele>466.6</ele>
        <time>2020-08-16T06:41:52Z</time>
      </trkpt>
      <trkpt lat="45.30147" lon="3.40186">
        <ele>466.3</ele>
        <time>2020-08-16T06:42:17Z</time>
      </trkpt>
      <trkpt lat="45.30216" lon="3.40311">
        <ele>466.3</ele>
        <time>2020-08-16T06:42:42Z</time>
      </trkpt>
      <trkpt lat="45.30275" lon="3.40444">
        <ele>466.7</ele>
        <time>2020-08-16T06:43:07Z</time>
      </trkpt>
      <trkpt lat="45.30309" lon="3.4058">
        <ele>467</ele>
        <time>2020-08-16T06:43:47Z</time>
      </trkpt>
      <trkpt lat="45.30326" lon="3.40721">
        <ele>468.3</ele>
        <time>2020-08-16T06:44:17Z</time>
      </trkpt>
      <trkpt lat="45.30245" lon="3.40834">
        <ele>468.6</ele>
        <time>2020-08-16T06:44:37Z</time>
      </trkpt>
      <trkpt lat="45.30155" lon="3.4089">
        <ele>469.4</ele>
        <time>2020-08-16T06:44:57Z</time>
      </trkpt>
      <trkpt lat="45.30064" lon="3.40957">
        <ele>471.7</ele>
        <time>2020-08-16T06:45:22Z</time>
      </trkpt>
      <trkpt lat="45.29979" lon="3.41034">
        <ele>472.1</ele>
        <time>2020-08-16T06:45:47Z</time>
      </trkpt>
      <trkpt lat="45.29904" lon="3.41103">
        <ele>472.7</ele>
        <time>2020-08-16T06:46:12Z</time>
      </trkpt>
      <trkpt lat="45.29822" lon="3.41177">
        <ele>473.4</ele>
        <time>2020-08-16T06:46:42Z</time>
      </trkpt>
      <trkpt lat="45.29735" lon="3.41245">
        <ele>474.5</ele>
        <time>2020-08-16T06:47:12Z</time>
      </trkpt>
      <trkpt lat="45.29633" lon="3.41275">
        <ele>475.3</ele>
        <time>2020-08-16T06:48:23Z</time>
      </trkpt>
      <trkpt lat="45.29536" lon="3.41301">
        <ele>475.6</ele>
        <time>2020-08-16T06:48:48Z</time>
      </trkpt>
      <trkpt lat="45.29435" lon="3.41337">
        <ele>474.9</ele>
        <time>2020-08-16T06:49:13Z</time>
      </trkpt>
      <trkpt lat="45.29333" lon="3.41363">
        <ele>475</ele>
        <time>2020-08-16T06:49:38Z</time>
      </trkpt>
      <trkpt lat="45.29245" lon="3.41432">
        <ele>474.9</ele>
        <time>2020-08-16T06:50:03Z</time>
      </trkpt>
      <trkpt lat="45.29168" lon="3.41514">
        <ele>474.6</ele>
        <time>2020-08-16T06:50:28Z</time>
      </trkpt>
      <trkpt lat="45.29087" lon="3.416">
        <ele>474.3</ele>
        <time>2020-08-16T06:50:53Z</time>
      </trkpt>
      <trkpt lat="45.29009" lon="3.4167">
        <ele>474.1</ele>
        <time>2020-08-16T06:51:40Z</time>
      </trkpt>
      <trkpt lat="45.28934" lon="3.41766">
        <ele>474</ele>
        <time>2020-08-16T06:52:05Z</time>
      </trkpt>
      <trkpt lat="45.28857" lon="3.4183">
        <ele>474.3</ele>
        <time>2020-08-16T06:52:40Z</time>
      </trkpt>
      <trkpt lat="45.28841" lon="3.41962">
        <ele>475.3</ele>
        <time>2020-08-16T06:53:25Z</time>
      </trkpt>
      <trkpt lat="45.28859" lon="3.42102">
        <ele>476.5</ele>
        <time>2020-08-16T06:54:16Z</time>
      </trkpt>
      <trkpt lat="45.28883" lon="3.42241">
        <ele>477.6</ele>
        <time>2020-08-16T06:54:56Z</time>
      </trkpt>
      <trkpt lat="45.28881" lon="3.42389">
        <ele>478.5</ele>
        <time>2020-08-16T06:55:31Z</time>
      </trkpt>
      <trkpt lat="45.28832" lon="3.42505">
        <ele>479.8</ele>
        <time>2020-08-16T06:56:11Z</time>
      </trkpt>
      <trkpt lat="45.28754" lon="3.42566">
        <ele>481.6</ele>
        <time>2020-08-16T06:56:54Z</time>
      </trkpt>
      <trkpt lat="45.28674" lon="3.42642">
        <ele>484.6</ele>
        <time>2020-08-16T06:57:46Z</time>
      </trkpt>
      <trkpt lat="45.28592" lon="3.42696">
        <ele>487.2</ele>
        <time>2020-08-16T06:58:37Z</time>
      </trkpt>
      <trkpt lat="45.28492" lon="3.42726">
        <ele>489.5</ele>
        <time>2020-08-16T06:59:12Z</time>
      </trkpt>
      <trkpt lat="45.28412" lon="3.42805">
        <ele>491.8</ele>
        <time>2020-08-16T06:59:47Z</time>
      </trkpt>
      <trkpt lat="45.28362" lon="3.42916">
        <ele>493.3</ele>
        <time>2020-08-16T07:00:17Z</time>
      </trkpt>
      <trkpt lat="45.28312" lon="3.43022">
        <ele>494.6</ele>
        <time>2020-08-16T07:00:47Z</time>
      </trkpt>
      <trkpt lat="45.28268" lon="3.43133">
        <ele>495.8</ele>
        <time>2020-08-16T07:01:17Z</time>
      </trkpt>
      <trkpt lat="45.28224" lon="3.43264">
        <ele>500.5</ele>
        <time>2020-08-16T07:05:55Z</time>
      </trkpt>
      <trkpt lat="45.28184" lon="3.43383">
        <ele>502.2</ele>
        <time>2020-08-16T07:06:25Z</time>
      </trkpt>
      <trkpt lat="45.28144" lon="3.43505">
        <ele>504.1</ele>
        <time>2020-08-16T07:07:11Z</time>
      </trkpt>
      <trkpt lat="45.28102" lon="3.43624">
        <ele>505.8</ele>
        <time>2020-08-16T07:08:02Z</time>
      </trkpt>
      <trkpt lat="45.28048" lon="3.43739">
        <ele>507.3</ele>
        <time>2020-08-16T07:08:32Z</time>
      </trkpt>
      <trkpt lat="45.28004" lon="3.43851">
        <ele>508.4</ele>
        <time>2020-08-16T07:08:57Z</time>
      </trkpt>
      <trkpt lat="45.27963" lon="3.4398">
        <ele>509.5</ele>
        <time>2020-08-16T07:09:37Z</time>
      </trkpt>
      <trkpt lat="45.27919" lon="3.44097">
        <ele>511.1</ele>
        <time>2020-08-16T07:10:17Z</time>
      </trkpt>
      <trkpt lat="45.27861" lon="3.44203">
        <ele>512.4</ele>
        <time>2020-08-16T07:10:47Z</time>
      </trkpt>
      <trkpt lat="45.27778" lon="3.44287">
        <ele>513.8</ele>
        <time>2020-08-16T07:11:17Z</time>
      </trkpt>
      <trkpt lat="45.27697" lon="3.44368">
        <ele>515.1</ele>
        <time>2020-08-16T07:11:47Z</time>
      </trkpt>
      <trkpt lat="45.2761" lon="3.44406">
        <ele>516.4</ele>
        <time>2020-08-16T07:12:17Z</time>
      </trkpt>
      <trkpt lat="45.27536" lon="3.44507">
        <ele>519.6</ele>
        <time>2020-08-16T07:12:47Z</time>
      </trkpt>
      <trkpt lat="45.27485" lon="3.44641">
        <ele>520.6</ele>
        <time>2020-08-16T07:13:12Z</time>
      </trkpt>
      <trkpt lat="45.27461" lon="3.44766">
        <ele>520.9</ele>
        <time>2020-08-16T07:13:37Z</time>
      </trkpt>
      <trkpt lat="45.27457" lon="3.44896">
        <ele>521.7</ele>
        <time>2020-08-16T07:14:14Z</time>
      </trkpt>
      <trkpt lat="45.27433" lon="3.45031">
        <ele>524.3</ele>
        <time>2020-08-16T07:15:14Z</time>
      </trkpt>
      <trkpt lat="45.27396" lon="3.45152">
        <ele>526.9</ele>
        <time>2020-08-16T07:15:50Z</time>
      </trkpt>
      <trkpt lat="45.27356" lon="3.4527">
        <ele>529</ele>
        <time>2020-08-16T07:16:05Z</time>
      </trkpt>
      <trkpt lat="45.27282" lon="3.45414">
        <ele>529.5</ele>
        <time>2020-08-16T07:16:20Z</time>
      </trkpt>
      <trkpt lat="45.27221" lon="3.45552">
        <ele>530.7</ele>
        <time>2020-08-16T07:16:35Z</time>
      </trkpt>
      <trkpt lat="45.27172" lon="3.45665">
        <ele>531.3</ele>
        <time>2020-08-16T07:16:50Z</time>
      </trkpt>
      <trkpt lat="45.27111" lon="3.4577">
        <ele>532.2</ele>
        <time>2020-08-16T07:17:10Z</time>
      </trkpt>
      <trkpt lat="45.27046" lon="3.45855">
        <ele>531.6</ele>
        <time>2020-08-16T07:17:30Z</time>
      </trkpt>
      <trkpt lat="45.26973" lon="3.45931">
        <ele>531.6</ele>
        <time>2020-08-16T07:17:50Z</time>
      </trkpt>
      <trkpt lat="45.26907" lon="3.46018">
        <ele>531.2</ele>
        <time>2020-08-16T07:18:10Z</time>
      </trkpt>
      <trkpt lat="45.2684" lon="3.46134">
        <ele>530.4</ele>
        <time>2020-08-16T07:18:30Z</time>
      </trkpt>
      <trkpt lat="45.2679" lon="3.46257">
        <ele>529.3</ele>
        <time>2020-08-16T07:18:45Z</time>
      </trkpt>
      <trkpt lat="45.26734" lon="3.46397">
        <ele>528.1</ele>
        <time>2020-08-16T07:19:00Z</time>
      </trkpt>
      <trkpt lat="45.2669" lon="3.46523">
        <ele>527.1</ele>
        <time>2020-08-16T07:19:15Z</time>
      </trkpt>
      <trkpt lat="45.26658" lon="3.46644">
        <ele>525.9</ele>
        <time>2020-08-16T07:19:30Z</time>
      </trkpt>
      <trkpt lat="45.26663" lon="3.46797">
        <ele>524.9</ele>
        <time>2020-08-16T07:19:50Z</time>
      </trkpt>
      <trkpt lat="45.26665" lon="3.46939">
        <ele>524.6</ele>
        <time>2020-08-16T07:20:15Z</time>
      </trkpt>
      <trkpt lat="45.2667" lon="3.47074">
        <ele>524.8</ele>
        <time>2020-08-16T07:20:45Z</time>
      </trkpt>
      <trkpt lat="45.26648" lon="3.47228">
        <ele>523.8</ele>
        <time>2020-08-16T07:21:05Z</time>
      </trkpt>
      <trkpt lat="45.26629" lon="3.47359">
        <ele>523.6</ele>
        <time>2020-08-16T07:21:25Z</time>
      </trkpt>
      <trkpt lat="45.26628" lon="3.47489">
        <ele>523.4</ele>
        <time>2020-08-16T07:21:55Z</time>
      </trkpt>
      <trkpt lat="45.26646" lon="3.47623">
        <ele>523.2</ele>
        <time>2020-08-16T07:22:35Z</time>
      </trkpt>
      <trkpt lat="45.26677" lon="3.4777">
        <ele>523.7</ele>
        <time>2020-08-16T07:23:10Z</time>
      </trkpt>
      <trkpt lat="45.26696" lon="3.47909">
        <ele>524</ele>
        <time>2020-08-16T07:23:35Z</time>
      </trkpt>
      <trkpt lat="45.26644" lon="3.48019">
        <ele>524.6</ele>
        <time>2020-08-16T07:24:10Z</time>
      </trkpt>
      <trkpt lat="45.26569" lon="3.4813">
        <ele>526.4</ele>
        <time>2020-08-16T07:24:35Z</time>
      </trkpt>
      <trkpt lat="45.2651" lon="3.48228">
        <ele>526.8</ele>
        <time>2020-08-16T07:24:55Z</time>
      </trkpt>
      <trkpt lat="45.26471" lon="3.48357">
        <ele>526.9</ele>
        <time>2020-08-16T07:25:15Z</time>
      </trkpt>
      <trkpt lat="45.26421" lon="3.48479">
        <ele>527.1</ele>
        <time>2020-08-16T07:25:45Z</time>
      </trkpt>
      <trkpt lat="45.26381" lon="3.48598">
        <ele>527.8</ele>
        <time>2020-08-16T07:26:25Z</time>
      </trkpt>
      <trkpt lat="45.2632" lon="3.48693">
        <ele>528.8</ele>
        <time>2020-08-16T07:27:00Z</time>
      </trkpt>
      <trkpt lat="45.26226" lon="3.48719">
        <ele>530.5</ele>
        <time>2020-08-16T07:32:39Z</time>
      </trkpt>
      <trkpt lat="45.26137" lon="3.48791">
        <ele>531.3</ele>
        <time>2020-08-16T07:33:09Z</time>
      </trkpt>
      <trkpt lat="45.26076" lon="3.48894">
        <ele>532.4</ele>
        <time>2020-08-16T07:33:34Z</time>
      </trkpt>
      <trkpt lat="45.26019" lon="3.49003">
        <ele>532.7</ele>
        <time>2020-08-16T07:33:59Z</time>
      </trkpt>
      <trkpt lat="45.2599" lon="3.4913">
        <ele>532.8</ele>
        <time>2020-08-16T07:34:34Z</time>
      </trkpt>
      <trkpt lat="45.25954" lon="3.49274">
        <ele>533.3</ele>
        <time>2020-08-16T07:35:20Z</time>
      </trkpt>
      <trkpt lat="45.25915" lon="3.49391">
        <ele>533.9</ele>
        <time>2020-08-16T07:35:35Z</time>
      </trkpt>
      <trkpt lat="45.25898" lon="3.49549">
        <ele>533.4</ele>
        <time>2020-08-16T07:35:55Z</time>
      </trkpt>
      <trkpt lat="45.25915" lon="3.49686">
        <ele>535.2</ele>
        <time>2020-08-16T07:36:20Z</time>
      </trkpt>
      <trkpt lat="45.25907" lon="3.49843">
        <ele>535.6</ele>
        <time>2020-08-16T07:36:45Z</time>
      </trkpt>
      <trkpt lat="45.25921" lon="3.49971">
        <ele>535.3</ele>
        <time>2020-08-16T07:37:05Z</time>
      </trkpt>
      <trkpt lat="45.25947" lon="3.50113">
        <ele>535.6</ele>
        <time>2020-08-16T07:37:30Z</time>
      </trkpt>
      <trkpt lat="45.25956" lon="3.5025">
        <ele>536.1</ele>
        <time>2020-08-16T07:38:00Z</time>
      </trkpt>
      <trkpt lat="45.25946" lon="3.50378">
        <ele>536.4</ele>
        <time>2020-08-16T07:38:30Z</time>
      </trkpt>
      <trkpt lat="45.25892" lon="3.50483">
        <ele>537.5</ele>
        <time>2020-08-16T07:38:55Z</time>
      </trkpt>
      <trkpt lat="45.25831" lon="3.50597">
        <ele>538.6</ele>
        <time>2020-08-16T07:39:15Z</time>
      </trkpt>
      <trkpt lat="45.25766" lon="3.50705">
        <ele>539</ele>
        <time>2020-08-16T07:39:45Z</time>
      </trkpt>
      <trkpt lat="45.25677" lon="3.50726">
        <ele>539.7</ele>
        <time>2020-08-16T07:40:15Z</time>
      </trkpt>
      <trkpt lat="45.25592" lon="3.50646">
        <ele>541.1</ele>
        <time>2020-08-16T07:40:44Z</time>
      </trkpt>
      <trkpt lat="45.25507" lon="3.50581">
        <ele>543.9</ele>
        <time>2020-08-16T07:41:09Z</time>
      </trkpt>
      <trkpt lat="45.25404" lon="3.50617">
        <ele>544.4</ele>
        <time>2020-08-16T07:41:39Z</time>
      </trkpt>
      <trkpt lat="45.25338" lon="3.50709">
        <ele>545.1</ele>
        <time>2020-08-16T07:42:04Z</time>
      </trkpt>
      <trkpt lat="45.25267" lon="3.50789">
        <ele>546.5</ele>
        <time>2020-08-16T07:42:29Z</time>
      </trkpt>
      <trkpt lat="45.25179" lon="3.50846">
        <ele>547.5</ele>
        <time>2020-08-16T07:42:54Z</time>
      </trkpt>
      <trkpt lat="45.25113" lon="3.5093">
        <ele>547.9</ele>
        <time>2020-08-16T07:43:24Z</time>
      </trkpt>
      <trkpt lat="45.25089" lon="3.51064">
        <ele>549.2</ele>
        <time>2020-08-16T07:44:25Z</time>
      </trkpt>
      <trkpt lat="45.25039" lon="3.51168">
        <ele>550.4</ele>
        <time>2020-08-16T07:45:18Z</time>
      </trkpt>
      <trkpt lat="45.24975" lon="3.51267">
        <ele>551.6</ele>
        <time>2020-08-16T07:45:58Z</time>
      </trkpt>
      <trkpt lat="45.24932" lon="3.51391">
        <ele>553.3</ele>
        <time>2020-08-16T07:46:43Z</time>
      </trkpt>
      <trkpt lat="45.24858" lon="3.51477">
        <ele>555.5</ele>
        <time>2020-08-16T07:47:49Z</time>
      </trkpt>
      <trkpt lat="45.24764" lon="3.51518">
        <ele>557.9</ele>
        <time>2020-08-16T07:48:58Z</time>
      </trkpt>
      <trkpt lat="45.2468" lon="3.51587">
        <ele>560.2</ele>
        <time>2020-08-16T07:50:00Z</time>
      </trkpt>
      <trkpt lat="45.24597" lon="3.51666">
        <ele>562</ele>
        <time>2020-08-16T07:50:46Z</time>
      </trkpt>
      <trkpt lat="45.24521" lon="3.51732">
        <ele>563.3</ele>
        <time>2020-08-16T07:51:26Z</time>
      </trkpt>
      <trkpt lat="45.24446" lon="3.51814">
        <ele>564.6</ele>
        <time>2020-08-16T07:52:06Z</time>
      </trkpt>
      <trkpt lat="45.24366" lon="3.51906">
        <ele>565.7</ele>
        <time>2020-08-16T07:52:41Z</time>
      </trkpt>
      <trkpt lat="45.24286" lon="3.52002">
        <ele>567.5</ele>
        <time>2020-08-16T07:53:11Z</time>
      </trkpt>
      <trkpt lat="45.24203" lon="3.52073">
        <ele>568</ele>
        <time>2020-08-16T07:53:41Z</time>
      </trkpt>
      <trkpt lat="45.24104" lon="3.52083">
        <ele>569.6</ele>
        <time>2020-08-16T07:54:06Z</time>
      </trkpt>
      <trkpt lat="45.24012" lon="3.52144">
        <ele>570.7</ele>
        <time>2020-08-16T07:54:31Z</time>
      </trkpt>
      <trkpt lat="45.23924" lon="3.52191">
        <ele>571.5</ele>
        <time>2020-08-16T07:54:46Z</time>
      </trkpt>
      <trkpt lat="45.23816" lon="3.52218">
        <ele>572.3</ele>
        <time>2020-08-16T07:55:01Z</time>
      </trkpt>
      <trkpt lat="45.23719" lon="3.52245">
        <ele>573.3</ele>
        <time>2020-08-16T07:55:16Z</time>
      </trkpt>
      <trkpt lat="45.23626" lon="3.52266">
        <ele>574.5</ele>
        <time>2020-08-16T07:55:31Z</time>
      </trkpt>
      <trkpt lat="45.23533" lon="3.52266">
        <ele>576.5</ele>
        <time>2020-08-16T07:55:51Z</time>
      </trkpt>
      <trkpt lat="45.23431" lon="3.5227">
        <ele>577.4</ele>
        <time>2020-08-16T07:56:36Z</time>
      </trkpt>
      <trkpt lat="45.23325" lon="3.52256">
        <ele>577.9</ele>
        <time>2020-08-16T07:57:01Z</time>
      </trkpt>
      <trkpt lat="45.23238" lon="3.52197">
        <ele>578.8</ele>
        <time>2020-08-16T07:57:31Z</time>
      </trkpt>
      <trkpt lat="45.23148" lon="3.52141">
        <ele>580.8</ele>
        <time>2020-08-16T07:57:51Z</time>
      </trkpt>
      <trkpt lat="45.23029" lon="3.52116">
        <ele>579.8</ele>
        <time>2020-08-16T07:58:11Z</time>
      </trkpt>
      <trkpt lat="45.22914" lon="3.52103">
        <ele>579.7</ele>
        <time>2020-08-16T07:58:31Z</time>
      </trkpt>
      <trkpt lat="45.2281" lon="3.52096">
        <ele>577</ele>
        <time>2020-08-16T07:58:56Z</time>
      </trkpt>
      <trkpt lat="45.22717" lon="3.52098">
        <ele>576.3</ele>
        <time>2020-08-16T07:59:26Z</time>
      </trkpt>
      <trkpt lat="45.22618" lon="3.52081">
        <ele>576.7</ele>
        <time>2020-08-16T08:00:01Z</time>
      </trkpt>
      <trkpt lat="45.22525" lon="3.52055">
        <ele>579</ele>
        <time>2020-08-16T08:00:36Z</time>
      </trkpt>
      <trkpt lat="45.22432" lon="3.52021">
        <ele>581.8</ele>
        <time>2020-08-16T08:01:11Z</time>
      </trkpt>
      <trkpt lat="45.22343" lon="3.51994">
        <ele>583.2</ele>
        <time>2020-08-16T08:01:41Z</time>
      </trkpt>
      <trkpt lat="45.22245" lon="3.51975">
        <ele>583.9</ele>
        <time>2020-08-16T08:02:16Z</time>
      </trkpt>
      <trkpt lat="45.22152" lon="3.51978">
        <ele>585.2</ele>
        <time>2020-08-16T08:02:51Z</time>
      </trkpt>
      <trkpt lat="45.2205" lon="3.51914">
        <ele>586.4</ele>
        <time>2020-08-16T08:03:21Z</time>
      </trkpt>
      <trkpt lat="45.21947" lon="3.51823">
        <ele>585.4</ele>
        <time>2020-08-16T08:03:36Z</time>
      </trkpt>
      <trkpt lat="45.21855" lon="3.51769">
        <ele>584</ele>
        <time>2020-08-16T08:03:46Z</time>
      </trkpt>
      <trkpt lat="45.21733" lon="3.51725">
        <ele>582.1</ele>
        <time>2020-08-16T08:04:01Z</time>
      </trkpt>
      <trkpt lat="45.21643" lon="3.51691">
        <ele>579.2</ele>
        <time>2020-08-16T08:04:16Z</time>
      </trkpt>
      <trkpt lat="45.21545" lon="3.51657">
        <ele>577.1</ele>
        <time>2020-08-16T08:04:36Z</time>
      </trkpt>
      <trkpt lat="45.21454" lon="3.51625">
        <ele>576.3</ele>
        <time>2020-08-16T08:04:56Z</time>
      </trkpt>
      <trkpt lat="45.21352" lon="3.51594">
        <ele>576</ele>
        <time>2020-08-16T08:05:21Z</time>
      </trkpt>
      <trkpt lat="45.21259" lon="3.5158">
        <ele>575.9</ele>
        <time>2020-08-16T08:05:46Z</time>
      </trkpt>
      <trkpt lat="45.21204" lon="3.51458">
        <ele>574.9</ele>
        <time>2020-08-16T08:06:16Z</time>
      </trkpt>
      <trkpt lat="45.21177" lon="3.51299">
        <ele>574.2</ele>
        <time>2020-08-16T08:06:41Z</time>
      </trkpt>
      <trkpt lat="45.21112" lon="3.51182">
        <ele>573.1</ele>
        <time>2020-08-16T08:07:00Z</time>
      </trkpt>
      <trkpt lat="45.21031" lon="3.5112">
        <ele>573.2</ele>
        <time>2020-08-16T08:07:20Z</time>
      </trkpt>
      <trkpt lat="45.20937" lon="3.51068">
        <ele>573.9</ele>
        <time>2020-08-16T08:07:45Z</time>
      </trkpt>
      <trkpt lat="45.20857" lon="3.50969">
        <ele>573.9</ele>
        <time>2020-08-16T08:08:15Z</time>
      </trkpt>
      <trkpt lat="45.2078" lon="3.50871">
        <ele>574.1</ele>
        <time>2020-08-16T08:08:45Z</time>
      </trkpt>
      <trkpt lat="45.20694" lon="3.5081">
        <ele>574.6</ele>
        <time>2020-08-16T08:09:15Z</time>
      </trkpt>
      <trkpt lat="45.20607" lon="3.50747">
        <ele>575.4</ele>
        <time>2020-08-16T08:09:45Z</time>
      </trkpt>
      <trkpt lat="45.20525" lon="3.50687">
        <ele>576.2</ele>
        <time>2020-08-16T08:10:15Z</time>
      </trkpt>
      <trkpt lat="45.20433" lon="3.50635">
        <ele>577.5</ele>
        <time>2020-08-16T08:11:00Z</time>
      </trkpt>
      <trkpt lat="45.20345" lon="3.50591">
        <ele>578.5</ele>
        <time>2020-08-16T08:11:40Z</time>
      </trkpt>
      <trkpt lat="45.20228" lon="3.50589">
        <ele>580.4</ele>
        <time>2020-08-16T08:12:05Z</time>
      </trkpt>
      <trkpt lat="45.20131" lon="3.50565">
        <ele>580.1</ele>
        <time>2020-08-16T08:12:20Z</time>
      </trkpt>
      <trkpt lat="45.20071" lon="3.50437">
        <ele>580.8</ele>
        <time>2020-08-16T08:12:40Z</time>
      </trkpt>
      <trkpt lat="45.1998" lon="3.50397">
        <ele>581.3</ele>
        <time>2020-08-16T08:13:39Z</time>
      </trkpt>
      <trkpt lat="45.19905" lon="3.50463">
        <ele>581.1</ele>
        <time>2020-08-16T08:13:54Z</time>
      </trkpt>
      <trkpt lat="45.19819" lon="3.50529">
        <ele>582</ele>
        <time>2020-08-16T08:14:19Z</time>
      </trkpt>
      <trkpt lat="45.1974" lon="3.50608">
        <ele>583</ele>
        <time>2020-08-16T08:14:59Z</time>
      </trkpt>
      <trkpt lat="45.19652" lon="3.50656">
        <ele>585</ele>
        <time>2020-08-16T08:15:44Z</time>
      </trkpt>
      <trkpt lat="45.19558" lon="3.50704">
        <ele>586.9</ele>
        <time>2020-08-16T08:16:24Z</time>
      </trkpt>
      <trkpt lat="45.19474" lon="3.50747">
        <ele>589.6</ele>
        <time>2020-08-16T08:16:49Z</time>
      </trkpt>
      <trkpt lat="45.19386" lon="3.50793">
        <ele>590.6</ele>
        <time>2020-08-16T08:17:14Z</time>
      </trkpt>
      <trkpt lat="45.193" lon="3.50836">
        <ele>591.1</ele>
        <time>2020-08-16T08:17:39Z</time>
      </trkpt>
      <trkpt lat="45.19206" lon="3.50884">
        <ele>592.6</ele>
        <time>2020-08-16T08:18:14Z</time>
      </trkpt>
      <trkpt lat="45.1912" lon="3.5093">
        <ele>594</ele>
        <time>2020-08-16T08:18:44Z</time>
      </trkpt>
      <trkpt lat="45.19024" lon="3.50981">
        <ele>595.1</ele>
        <time>2020-08-16T08:19:14Z</time>
      </trkpt>
      <trkpt lat="45.18935" lon="3.51028">
        <ele>596.2</ele>
        <time>2020-08-16T08:19:45Z</time>
      </trkpt>
      <trkpt lat="45.18841" lon="3.51076">
        <ele>597</ele>
        <time>2020-08-16T08:20:15Z</time>
      </trkpt>
      <trkpt lat="45.18756" lon="3.51118">
        <ele>598.2</ele>
        <time>2020-08-16T08:20:40Z</time>
      </trkpt>
      <trkpt lat="45.18654" lon="3.51174">
        <ele>599</ele>
        <time>2020-08-16T08:21:05Z</time>
      </trkpt>
      <trkpt lat="45.18555" lon="3.51225">
        <ele>599.1</ele>
        <time>2020-08-16T08:21:30Z</time>
      </trkpt>
      <trkpt lat="45.18465" lon="3.51272">
        <ele>599.3</ele>
        <time>2020-08-16T08:22:05Z</time>
      </trkpt>
      <trkpt lat="45.18385" lon="3.51327">
        <ele>599.9</ele>
        <time>2020-08-16T08:22:58Z</time>
      </trkpt>
      <trkpt lat="45.18309" lon="3.51396">
        <ele>600.9</ele>
        <time>2020-08-16T08:23:57Z</time>
      </trkpt>
      <trkpt lat="45.18235" lon="3.51465">
        <ele>601.8</ele>
        <time>2020-08-16T08:24:53Z</time>
      </trkpt>
      <trkpt lat="45.18161" lon="3.51535">
        <ele>603.4</ele>
        <time>2020-08-16T08:25:50Z</time>
      </trkpt>
      <trkpt lat="45.18081" lon="3.51613">
        <ele>605.4</ele>
        <time>2020-08-16T08:26:50Z</time>
      </trkpt>
      <trkpt lat="45.18006" lon="3.51686">
        <ele>607.1</ele>
        <time>2020-08-16T08:27:43Z</time>
      </trkpt>
      <trkpt lat="45.1793" lon="3.51756">
        <ele>608.4</ele>
        <time>2020-08-16T08:28:29Z</time>
      </trkpt>
      <trkpt lat="45.17837" lon="3.51787">
        <ele>609.3</ele>
        <time>2020-08-16T08:29:04Z</time>
      </trkpt>
      <trkpt lat="45.17768" lon="3.51679">
        <ele>610.5</ele>
        <time>2020-08-16T08:29:39Z</time>
      </trkpt>
      <trkpt lat="45.17721" lon="3.51566">
        <ele>611.5</ele>
        <time>2020-08-16T08:30:09Z</time>
      </trkpt>
      <trkpt lat="45.1767" lon="3.51442">
        <ele>612.4</ele>
        <time>2020-08-16T08:30:39Z</time>
      </trkpt>
      <trkpt lat="45.17618" lon="3.51318">
        <ele>613.3</ele>
        <time>2020-08-16T08:31:09Z</time>
      </trkpt>
      <trkpt lat="45.17568" lon="3.51196">
        <ele>614.3</ele>
        <time>2020-08-16T08:31:39Z</time>
      </trkpt>
      <trkpt lat="45.17507" lon="3.51069">
        <ele>616.4</ele>
        <time>2020-08-16T08:32:09Z</time>
      </trkpt>
      <trkpt lat="45.1742" lon="3.50984">
        <ele>617.8</ele>
        <time>2020-08-16T08:32:33Z</time>
      </trkpt>
      <trkpt lat="45.17324" lon="3.50916">
        <ele>618.7</ele>
        <time>2020-08-16T08:32:58Z</time>
      </trkpt>
      <trkpt lat="45.1722" lon="3.50916">
        <ele>619.7</ele>
        <time>2020-08-16T08:33:23Z</time>
      </trkpt>
      <trkpt lat="45.17122" lon="3.50979">
        <ele>620.5</ele>
        <time>2020-08-16T08:33:48Z</time>
      </trkpt>
      <trkpt lat="45.17021" lon="3.50999">
        <ele>620.8</ele>
        <time>2020-08-16T08:34:18Z</time>
      </trkpt>
      <trkpt lat="45.16915" lon="3.51006">
        <ele>621.6</ele>
        <time>2020-08-16T08:34:53Z</time>
      </trkpt>
      <trkpt lat="45.16825" lon="3.50977">
        <ele>623.3</ele>
        <time>2020-08-16T08:35:13Z</time>
      </trkpt>
      <trkpt lat="45.16742" lon="3.50882">
        <ele>623</ele>
        <time>2020-08-16T08:35:28Z</time>
      </trkpt>
      <trkpt lat="45.16642" lon="3.5076">
        <ele>622.2</ele>
        <time>2020-08-16T08:35:43Z</time>
      </trkpt>
      <trkpt lat="45.16531" lon="3.50676">
        <ele>623.4</ele>
        <time>2020-08-16T08:35:58Z</time>
      </trkpt>
      <trkpt lat="45.16431" lon="3.50651">
        <ele>624.3</ele>
        <time>2020-08-16T08:36:23Z</time>
      </trkpt>
      <trkpt lat="45.16334" lon="3.50628">
        <ele>625.2</ele>
        <time>2020-08-16T08:37:03Z</time>
      </trkpt>
      <trkpt lat="45.16238" lon="3.50604">
        <ele>625.6</ele>
        <time>2020-08-16T08:37:33Z</time>
      </trkpt>
      <trkpt lat="45.16138" lon="3.50582">
        <ele>624.4</ele>
        <time>2020-08-16T08:37:58Z</time>
      </trkpt>
      <trkpt lat="45.16044" lon="3.50561">
        <ele>624.7</ele>
        <time>2020-08-16T08:38:28Z</time>
      </trkpt>
      <trkpt lat="45.15944" lon="3.50537">
        <ele>625.6</ele>
        <time>2020-08-16T08:39:03Z</time>
      </trkpt>
      <trkpt lat="45.15851" lon="3.50516">
        <ele>626.6</ele>
        <time>2020-08-16T08:39:33Z</time>
      </trkpt>
      <trkpt lat="45.15739" lon="3.50487">
        <ele>625.3</ele>
        <time>2020-08-16T08:39:53Z</time>
      </trkpt>
      <trkpt lat="45.15636" lon="3.50456">
        <ele>623.9</ele>
        <time>2020-08-16T08:40:08Z</time>
      </trkpt>
      <trkpt lat="45.15545" lon="3.50407">
        <ele>623.5</ele>
        <time>2020-08-16T08:40:23Z</time>
      </trkpt>
      <trkpt lat="45.15451" lon="3.50383">
        <ele>624</ele>
        <time>2020-08-16T08:40:43Z</time>
      </trkpt>
      <trkpt lat="45.15353" lon="3.50384">
        <ele>624.5</ele>
        <time>2020-08-16T08:41:18Z</time>
      </trkpt>
      <trkpt lat="45.15256" lon="3.50362">
        <ele>627</ele>
        <time>2020-08-16T08:42:11Z</time>
      </trkpt>
      <trkpt lat="45.15168" lon="3.50318">
        <ele>630</ele>
        <time>2020-08-16T08:43:05Z</time>
      </trkpt>
      <trkpt lat="45.15077" lon="3.50335">
        <ele>629</ele>
        <time>2020-08-16T08:43:25Z</time>
      </trkpt>
      <trkpt lat="45.14946" lon="3.50368">
        <ele>627.1</ele>
        <time>2020-08-16T08:43:40Z</time>
      </trkpt>
      <trkpt lat="45.14835" lon="3.50371">
        <ele>627.3</ele>
        <time>2020-08-16T08:43:55Z</time>
      </trkpt>
      <trkpt lat="45.14733" lon="3.50345">
        <ele>626.3</ele>
        <time>2020-08-16T08:44:10Z</time>
      </trkpt>
      <trkpt lat="45.1463" lon="3.50317">
        <ele>625.9</ele>
        <time>2020-08-16T08:44:35Z</time>
      </trkpt>
      <trkpt lat="45.14533" lon="3.50283">
        <ele>625.5</ele>
        <time>2020-08-16T08:45:10Z</time>
      </trkpt>
      <trkpt lat="45.14445" lon="3.50198">
        <ele>624.7</ele>
        <time>2020-08-16T08:45:40Z</time>
      </trkpt>
      <trkpt lat="45.14358" lon="3.50072">
        <ele>621.4</ele>
        <time>2020-08-16T08:46:00Z</time>
      </trkpt>
      <trkpt lat="45.1423" lon="3.49993">
        <ele>618.2</ele>
        <time>2020-08-16T08:46:15Z</time>
      </trkpt>
      <trkpt lat="45.14123" lon="3.49978">
        <ele>616.5</ele>
        <time>2020-08-16T08:46:25Z</time>
      </trkpt>
      <trkpt lat="45.14042" lon="3.49909">
        <ele>615.6</ele>
        <time>2020-08-16T08:46:35Z</time>
      </trkpt>
      <trkpt lat="45.13965" lon="3.49822">
        <ele>613.8</ele>
        <time>2020-08-16T08:46:50Z</time>
      </trkpt>
      <trkpt lat="45.13882" lon="3.49739">
        <ele>611.3</ele>
        <time>2020-08-16T08:47:15Z</time>
      </trkpt>
      <trkpt lat="45.13782" lon="3.49691">
        <ele>609.2</ele>
        <time>2020-08-16T08:47:45Z</time>
      </trkpt>
      <trkpt lat="45.13687" lon="3.49691">
        <ele>606.2</ele>
        <time>2020-08-16T08:48:05Z</time>
      </trkpt>
      <trkpt lat="45.13586" lon="3.49729">
        <ele>603.3</ele>
        <time>2020-08-16T08:48:20Z</time>
      </trkpt>
      <trkpt lat="45.13461" lon="3.49745">
        <ele>601</ele>
        <time>2020-08-16T08:48:35Z</time>
      </trkpt>
      <trkpt lat="45.1336" lon="3.49668">
        <ele>598.5</ele>
        <time>2020-08-16T08:48:50Z</time>
      </trkpt>
      <trkpt lat="45.13251" lon="3.49594">
        <ele>595.7</ele>
        <time>2020-08-16T08:49:05Z</time>
      </trkpt>
      <trkpt lat="45.13132" lon="3.49607">
        <ele>592.9</ele>
        <time>2020-08-16T08:49:20Z</time>
      </trkpt>
      <trkpt lat="45.1301" lon="3.49594">
        <ele>588.5</ele>
        <time>2020-08-16T08:49:35Z</time>
      </trkpt>
      <trkpt lat="45.12897" lon="3.49593">
        <ele>585</ele>
        <time>2020-08-16T08:49:50Z</time>
      </trkpt>
      <trkpt lat="45.1281" lon="3.49622">
        <ele>582</ele>
        <time>2020-08-16T08:50:05Z</time>
      </trkpt>
      <trkpt lat="45.12718" lon="3.49672">
        <ele>579.2</ele>
        <time>2020-08-16T08:50:25Z</time>
      </trkpt>
      <trkpt lat="45.12633" lon="3.49719">
        <ele>576.8</ele>
        <time>2020-08-16T08:50:45Z</time>
      </trkpt>
      <trkpt lat="45.12538" lon="3.49767">
        <ele>575.5</ele>
        <time>2020-08-16T08:51:10Z</time>
      </trkpt>
      <trkpt lat="45.12444" lon="3.49812">
        <ele>575</ele>
        <time>2020-08-16T08:51:40Z</time>
      </trkpt>
      <trkpt lat="45.12357" lon="3.49849">
        <ele>574.3</ele>
        <time>2020-08-16T08:52:10Z</time>
      </trkpt>
      <trkpt lat="45.12261" lon="3.49877">
        <ele>573</ele>
        <time>2020-08-16T08:52:40Z</time>
      </trkpt>
      <trkpt lat="45.12153" lon="3.49823">
        <ele>572.3</ele>
        <time>2020-08-16T08:53:05Z</time>
      </trkpt>
      <trkpt lat="45.12064" lon="3.49748">
        <ele>572</ele>
        <time>2020-08-16T08:53:25Z</time>
      </trkpt>
      <trkpt lat="45.1198" lon="3.49658">
        <ele>571.7</ele>
        <time>2020-08-16T08:53:45Z</time>
      </trkpt>
      <trkpt lat="45.1191" lon="3.49549">
        <ele>570.5</ele>
        <time>2020-08-16T08:54:05Z</time>
      </trkpt>
      <trkpt lat="45.11855" lon="3.4944">
        <ele>568.5</ele>
        <time>2020-08-16T08:54:20Z</time>
      </trkpt>
      <trkpt lat="45.1176" lon="3.49322">
        <ele>565.7</ele>
        <time>2020-08-16T08:54:35Z</time>
      </trkpt>
      <trkpt lat="45.11679" lon="3.49248">
        <ele>564</ele>
        <time>2020-08-16T08:54:45Z</time>
      </trkpt>
      <trkpt lat="45.1164" lon="3.49086">
        <ele>562.4</ele>
        <time>2020-08-16T08:55:00Z</time>
      </trkpt>
      <trkpt lat="45.11543" lon="3.49029">
        <ele>559.4</ele>
        <time>2020-08-16T08:55:20Z</time>
      </trkpt>
      <trkpt lat="45.11438" lon="3.49076">
        <ele>557.3</ele>
        <time>2020-08-16T08:55:40Z</time>
      </trkpt>
      <trkpt lat="45.1135" lon="3.49162">
        <ele>554</ele>
        <time>2020-08-16T08:56:00Z</time>
      </trkpt>
      <trkpt lat="45.11259" lon="3.49239">
        <ele>549.3</ele>
        <time>2020-08-16T08:56:25Z</time>
      </trkpt>
      <trkpt lat="45.11183" lon="3.49309">
        <ele>550.3</ele>
        <time>2020-08-16T08:56:45Z</time>
      </trkpt>
      <trkpt lat="45.11109" lon="3.49381">
        <ele>551.4</ele>
        <time>2020-08-16T08:57:04Z</time>
      </trkpt>
      <trkpt lat="45.11022" lon="3.49462">
        <ele>551.6</ele>
        <time>2020-08-16T08:57:29Z</time>
      </trkpt>
      <trkpt lat="45.10946" lon="3.49533">
        <ele>551.8</ele>
        <time>2020-08-16T08:57:54Z</time>
      </trkpt>
      <trkpt lat="45.10872" lon="3.49603">
        <ele>552.3</ele>
        <time>2020-08-16T08:58:19Z</time>
      </trkpt>
      <trkpt lat="45.10774" lon="3.49659">
        <ele>552.9</ele>
        <time>2020-08-16T08:58:49Z</time>
      </trkpt>
      <trkpt lat="45.10672" lon="3.4969">
        <ele>553.3</ele>
        <time>2020-08-16T08:59:19Z</time>
      </trkpt>
      <trkpt lat="45.10569" lon="3.49708">
        <ele>553.4</ele>
        <time>2020-08-16T08:59:49Z</time>
      </trkpt>
      <trkpt lat="45.10464" lon="3.49725">
        <ele>553.7</ele>
        <time>2020-08-16T09:00:19Z</time>
      </trkpt>
      <trkpt lat="45.1036" lon="3.49742">
        <ele>554</ele>
        <time>2020-08-16T09:00:49Z</time>
      </trkpt>
      <trkpt lat="45.10258" lon="3.49736">
        <ele>554.5</ele>
        <time>2020-08-16T09:01:19Z</time>
      </trkpt>
      <trkpt lat="45.10153" lon="3.49729">
        <ele>555.5</ele>
        <time>2020-08-16T09:01:49Z</time>
      </trkpt>
      <trkpt lat="45.10059" lon="3.4973">
        <ele>555.6</ele>
        <time>2020-08-16T09:02:09Z</time>
      </trkpt>
      <trkpt lat="45.09961" lon="3.49744">
        <ele>553.3</ele>
        <time>2020-08-16T09:19:31Z</time>
      </trkpt>
      <trkpt lat="45.09873" lon="3.49706">
        <ele>553</ele>
        <time>2020-08-16T09:20:01Z</time>
      </trkpt>
      <trkpt lat="45.09779" lon="3.49647">
        <ele>552.8</ele>
        <time>2020-08-16T09:20:36Z</time>
      </trkpt>
      <trkpt lat="45.09747" lon="3.4951">
        <ele>552.9</ele>
        <time>2020-08-16T09:21:16Z</time>
      </trkpt>
      <trkpt lat="45.09669" lon="3.49608">
        <ele>553</ele>
        <time>2020-08-16T09:21:40Z</time>
      </trkpt>
      <trkpt lat="45.09593" lon="3.49725">
        <ele>552.9</ele>
        <time>2020-08-16T09:22:00Z</time>
      </trkpt>
      <trkpt lat="45.09525" lon="3.4983">
        <ele>552.9</ele>
        <time>2020-08-16T09:22:20Z</time>
      </trkpt>
      <trkpt lat="45.09466" lon="3.49931">
        <ele>552.8</ele>
        <time>2020-08-16T09:22:40Z</time>
      </trkpt>
      <trkpt lat="45.09403" lon="3.50029">
        <ele>552.8</ele>
        <time>2020-08-16T09:23:00Z</time>
      </trkpt>
      <trkpt lat="45.09339" lon="3.50142">
        <ele>552.9</ele>
        <time>2020-08-16T09:23:25Z</time>
      </trkpt>
      <trkpt lat="45.09327" lon="3.5028">
        <ele>552.9</ele>
        <time>2020-08-16T09:23:50Z</time>
      </trkpt>
      <trkpt lat="45.09295" lon="3.50405">
        <ele>552.9</ele>
        <time>2020-08-16T09:24:10Z</time>
      </trkpt>
      <trkpt lat="45.09206" lon="3.5047">
        <ele>552.9</ele>
        <time>2020-08-16T09:24:30Z</time>
      </trkpt>
      <trkpt lat="45.09115" lon="3.50527">
        <ele>552.7</ele>
        <time>2020-08-16T09:24:50Z</time>
      </trkpt>
      <trkpt lat="45.09033" lon="3.50579">
        <ele>552.9</ele>
        <time>2020-08-16T09:25:20Z</time>
      </trkpt>
      <trkpt lat="45.08945" lon="3.50632">
        <ele>553.9</ele>
        <time>2020-08-16T09:26:09Z</time>
      </trkpt>
      <trkpt lat="45.08865" lon="3.50716">
        <ele>555</ele>
        <time>2020-08-16T09:26:58Z</time>
      </trkpt>
      <trkpt lat="45.08809" lon="3.50814">
        <ele>556.6</ele>
        <time>2020-08-16T09:27:45Z</time>
      </trkpt>
      <trkpt lat="45.08751" lon="3.50918">
        <ele>558.6</ele>
        <time>2020-08-16T09:28:25Z</time>
      </trkpt>
      <trkpt lat="45.08693" lon="3.51018">
        <ele>560.8</ele>
        <time>2020-08-16T09:29:00Z</time>
      </trkpt>
      <trkpt lat="45.08636" lon="3.51119">
        <ele>562.9</ele>
        <time>2020-08-16T09:29:35Z</time>
      </trkpt>
      <trkpt lat="45.08578" lon="3.5122">
        <ele>564.6</ele>
        <time>2020-08-16T09:30:05Z</time>
      </trkpt>
      <trkpt lat="45.08516" lon="3.51335">
        <ele>566.4</ele>
        <time>2020-08-16T09:30:35Z</time>
      </trkpt>
      <trkpt lat="45.0846" lon="3.51434">
        <ele>568.2</ele>
        <time>2020-08-16T09:31:05Z</time>
      </trkpt>
      <trkpt lat="45.08398" lon="3.51544">
        <ele>570.2</ele>
        <time>2020-08-16T09:31:40Z</time>
      </trkpt>
      <trkpt lat="45.08342" lon="3.51644">
        <ele>572</ele>
        <time>2020-08-16T09:32:10Z</time>
      </trkpt>
      <trkpt lat="45.08281" lon="3.51753">
        <ele>574.5</ele>
        <time>2020-08-16T09:32:50Z</time>
      </trkpt>
      <trkpt lat="45.08219" lon="3.51859">
        <ele>576.9</ele>
        <time>2020-08-16T09:33:30Z</time>
      </trkpt>
      <trkpt lat="45.08162" lon="3.51965">
        <ele>579.7</ele>
        <time>2020-08-16T09:34:18Z</time>
      </trkpt>
      <trkpt lat="45.08107" lon="3.52063">
        <ele>582.8</ele>
        <time>2020-08-16T09:35:08Z</time>
      </trkpt>
      <trkpt lat="45.08084" lon="3.52197">
        <ele>586.7</ele>
        <time>2020-08-16T09:36:05Z</time>
      </trkpt>
      <trkpt lat="45.08079" lon="3.52326">
        <ele>590.3</ele>
        <time>2020-08-16T09:36:59Z</time>
      </trkpt>
      <trkpt lat="45.08052" lon="3.52456">
        <ele>595.9</ele>
        <time>2020-08-16T09:37:31Z</time>
      </trkpt>
      <trkpt lat="45.07939" lon="3.52496">
        <ele>597</ele>
        <time>2020-08-16T09:37:46Z</time>
      </trkpt>
      <trkpt lat="45.07853" lon="3.52529">
        <ele>597.3</ele>
        <time>2020-08-16T09:37:56Z</time>
      </trkpt>
      <trkpt lat="45.07763" lon="3.52601">
        <ele>597.3</ele>
        <time>2020-08-16T09:38:06Z</time>
      </trkpt>
      <trkpt lat="45.07659" lon="3.52625">
        <ele>596.5</ele>
        <time>2020-08-16T09:38:16Z</time>
      </trkpt>
      <trkpt lat="45.07568" lon="3.52704">
        <ele>595.9</ele>
        <time>2020-08-16T09:38:26Z</time>
      </trkpt>
      <trkpt lat="45.07468" lon="3.52747">
        <ele>595.2</ele>
        <time>2020-08-16T09:38:36Z</time>
      </trkpt>
      <trkpt lat="45.07389" lon="3.52833">
        <ele>595.1</ele>
        <time>2020-08-16T09:38:46Z</time>
      </trkpt>
      <trkpt lat="45.0732" lon="3.52934">
        <ele>593</ele>
        <time>2020-08-16T09:38:56Z</time>
      </trkpt>
      <trkpt lat="45.07261" lon="3.53091">
        <ele>589.7</ele>
        <time>2020-08-16T09:39:11Z</time>
      </trkpt>
      <trkpt lat="45.07218" lon="3.53211">
        <ele>587.3</ele>
        <time>2020-08-16T09:39:26Z</time>
      </trkpt>
      <trkpt lat="45.07165" lon="3.53338">
        <ele>585.5</ele>
        <time>2020-08-16T09:39:56Z</time>
      </trkpt>
      <trkpt lat="45.07113" lon="3.53456">
        <ele>582.7</ele>
        <time>2020-08-16T09:40:31Z</time>
      </trkpt>
      <trkpt lat="45.07049" lon="3.53558">
        <ele>581.6</ele>
        <time>2020-08-16T09:41:06Z</time>
      </trkpt>
      <trkpt lat="45.06974" lon="3.53629">
        <ele>580.9</ele>
        <time>2020-08-16T09:41:31Z</time>
      </trkpt>
      <trkpt lat="45.06899" lon="3.53713">
        <ele>581.2</ele>
        <time>2020-08-16T09:41:56Z</time>
      </trkpt>
      <trkpt lat="45.06831" lon="3.53835">
        <ele>581.3</ele>
        <time>2020-08-16T09:42:21Z</time>
      </trkpt>
      <trkpt lat="45.06794" lon="3.53956">
        <ele>582.5</ele>
        <time>2020-08-16T09:42:41Z</time>
      </trkpt>
      <trkpt lat="45.06802" lon="3.54106">
        <ele>583.1</ele>
        <time>2020-08-16T09:43:11Z</time>
      </trkpt>
      <trkpt lat="45.06811" lon="3.54235">
        <ele>584.1</ele>
        <time>2020-08-16T09:43:36Z</time>
      </trkpt>
      <trkpt lat="45.0682" lon="3.54381">
        <ele>584</ele>
        <time>2020-08-16T09:44:06Z</time>
      </trkpt>
      <trkpt lat="45.06825" lon="3.54524">
        <ele>585.2</ele>
        <time>2020-08-16T09:44:41Z</time>
      </trkpt>
      <trkpt lat="45.06785" lon="3.54656">
        <ele>586.9</ele>
        <time>2020-08-16T09:45:21Z</time>
      </trkpt>
      <trkpt lat="45.06707" lon="3.54735">
        <ele>587.9</ele>
        <time>2020-08-16T09:45:51Z</time>
      </trkpt>
      <trkpt lat="45.06612" lon="3.54778">
        <ele>589.4</ele>
        <time>2020-08-16T09:46:20Z</time>
      </trkpt>
      <trkpt lat="45.06522" lon="3.54809">
        <ele>590.7</ele>
        <time>2020-08-16T09:47:09Z</time>
      </trkpt>
      <trkpt lat="45.06431" lon="3.54796">
        <ele>592.8</ele>
        <time>2020-08-16T09:47:56Z</time>
      </trkpt>
      <trkpt lat="45.06334" lon="3.54807">
        <ele>595.7</ele>
        <time>2020-08-16T09:48:53Z</time>
      </trkpt>
      <trkpt lat="45.06265" lon="3.54901">
        <ele>599</ele>
        <time>2020-08-16T09:49:50Z</time>
      </trkpt>
      <trkpt lat="45.06197" lon="3.55001">
        <ele>601.9</ele>
        <time>2020-08-16T09:50:49Z</time>
      </trkpt>
      <trkpt lat="45.06112" lon="3.5504">
        <ele>604.6</ele>
        <time>2020-08-16T09:51:42Z</time>
      </trkpt>
      <trkpt lat="45.06024" lon="3.55096">
        <ele>607.9</ele>
        <time>2020-08-16T09:52:43Z</time>
      </trkpt>
      <trkpt lat="45.06054" lon="3.55227">
        <ele>611.2</ele>
        <time>2020-08-16T09:53:53Z</time>
      </trkpt>
      <trkpt lat="45.06" lon="3.55341">
        <ele>614.3</ele>
        <time>2020-08-16T09:54:55Z</time>
      </trkpt>
      <trkpt lat="45.05944" lon="3.55449">
        <ele>616.7</ele>
        <time>2020-08-16T09:55:42Z</time>
      </trkpt>
      <trkpt lat="45.05908" lon="3.5557">
        <ele>619.5</ele>
        <time>2020-08-16T09:56:22Z</time>
      </trkpt>
      <trkpt lat="45.05842" lon="3.55668">
        <ele>622.8</ele>
        <time>2020-08-16T09:57:07Z</time>
      </trkpt>
      <trkpt lat="45.05749" lon="3.55628">
        <ele>626.4</ele>
        <time>2020-08-16T09:58:00Z</time>
      </trkpt>
      <trkpt lat="45.05655" lon="3.55624">
        <ele>629.2</ele>
        <time>2020-08-16T09:58:45Z</time>
      </trkpt>
      <trkpt lat="45.05569" lon="3.5556">
        <ele>633</ele>
        <time>2020-08-16T09:59:36Z</time>
      </trkpt>
      <trkpt lat="45.05541" lon="3.55435">
        <ele>638.6</ele>
        <time>2020-08-16T10:00:21Z</time>
      </trkpt>
      <trkpt lat="45.05468" lon="3.55347">
        <ele>643.8</ele>
        <time>2020-08-16T10:01:06Z</time>
      </trkpt>
      <trkpt lat="45.05379" lon="3.55371">
        <ele>649.4</ele>
        <time>2020-08-16T10:02:00Z</time>
      </trkpt>
      <trkpt lat="45.05289" lon="3.55388">
        <ele>690.5</ele>
        <time>2020-08-16T10:26:48Z</time>
      </trkpt>
      <trkpt lat="45.05255" lon="3.55264">
        <ele>691.9</ele>
        <time>2020-08-16T10:28:04Z</time>
      </trkpt>
      <trkpt lat="45.05172" lon="3.55188">
        <ele>693.5</ele>
        <time>2020-08-16T10:29:05Z</time>
      </trkpt>
      <trkpt lat="45.05154" lon="3.55049">
        <ele>697.2</ele>
        <time>2020-08-16T10:30:30Z</time>
      </trkpt>
      <trkpt lat="45.05116" lon="3.54929">
        <ele>706.3</ele>
        <time>2020-08-16T10:31:41Z</time>
      </trkpt>
      <trkpt lat="45.05048" lon="3.54829">
        <ele>716.6</ele>
        <time>2020-08-16T10:32:47Z</time>
      </trkpt>
      <trkpt lat="45.04956" lon="3.54774">
        <ele>726</ele>
        <time>2020-08-16T10:34:00Z</time>
      </trkpt>
      <trkpt lat="45.04935" lon="3.54648">
        <ele>732.7</ele>
        <time>2020-08-16T10:35:06Z</time>
      </trkpt>
      <trkpt lat="45.04861" lon="3.54552">
        <ele>738.6</ele>
        <time>2020-08-16T10:36:19Z</time>
      </trkpt>
      <trkpt lat="45.04784" lon="3.5447">
        <ele>746.3</ele>
        <time>2020-08-16T10:37:20Z</time>
      </trkpt>
      <trkpt lat="45.04701" lon="3.54403">
        <ele>758.4</ele>
        <time>2020-08-16T10:38:31Z</time>
      </trkpt>
      <trkpt lat="45.04708" lon="3.54268">
        <ele>768.4</ele>
        <time>2020-08-16T10:39:42Z</time>
      </trkpt>
      <trkpt lat="45.04669" lon="3.54138">
        <ele>775</ele>
        <time>2020-08-16T10:40:38Z</time>
      </trkpt>
      <trkpt lat="45.04582" lon="3.54078">
        <ele>780.7</ele>
        <time>2020-08-16T10:41:49Z</time>
      </trkpt>
      <trkpt lat="45.04486" lon="3.5411">
        <ele>784.2</ele>
        <time>2020-08-16T10:42:54Z</time>
      </trkpt>
      <trkpt lat="45.04387" lon="3.54098">
        <ele>788.5</ele>
        <time>2020-08-16T10:44:00Z</time>
      </trkpt>
      <trkpt lat="45.04291" lon="3.54091">
        <ele>792.1</ele>
        <time>2020-08-16T10:45:02Z</time>
      </trkpt>
      <trkpt lat="45.04215" lon="3.54174">
        <ele>797</ele>
        <time>2020-08-16T10:46:07Z</time>
      </trkpt>
      <trkpt lat="45.04121" lon="3.54177">
        <ele>806.8</ele>
        <time>2020-08-16T10:47:17Z</time>
      </trkpt>
      <trkpt lat="45.04023" lon="3.54186">
        <ele>814.5</ele>
        <time>2020-08-16T10:48:24Z</time>
      </trkpt>
      <trkpt lat="45.03927" lon="3.5416">
        <ele>822</ele>
        <time>2020-08-16T10:49:43Z</time>
      </trkpt>
      <trkpt lat="45.03867" lon="3.54051">
        <ele>827.7</ele>
        <time>2020-08-16T10:50:51Z</time>
      </trkpt>
      <trkpt lat="45.03777" lon="3.5404">
        <ele>833.3</ele>
        <time>2020-08-16T10:52:06Z</time>
      </trkpt>
      <trkpt lat="45.03683" lon="3.54019">
        <ele>841.5</ele>
        <time>2020-08-16T10:53:26Z</time>
      </trkpt>
      <trkpt lat="45.03619" lon="3.53917">
        <ele>854.5</ele>
        <time>2020-08-16T10:54:36Z</time>
      </trkpt>
      <trkpt lat="45.03531" lon="3.53863">
        <ele>867.3</ele>
        <time>2020-08-16T10:55:44Z</time>
      </trkpt>
      <trkpt lat="45.03451" lon="3.53924">
        <ele>877.2</ele>
        <time>2020-08-16T10:56:53Z</time>
      </trkpt>
      <trkpt lat="45.0341" lon="3.54045">
        <ele>884.1</ele>
        <time>2020-08-16T10:58:03Z</time>
      </trkpt>
      <trkpt lat="45.03334" lon="3.54109">
        <ele>890.9</ele>
        <time>2020-08-16T10:59:12Z</time>
      </trkpt>
      <trkpt lat="45.03246" lon="3.54139">
        <ele>895.9</ele>
        <time>2020-08-16T11:00:18Z</time>
      </trkpt>
      <trkpt lat="45.03178" lon="3.5423">
        <ele>899.9</ele>
        <time>2020-08-16T11:01:24Z</time>
      </trkpt>
      <trkpt lat="45.03105" lon="3.54132">
        <ele>907</ele>
        <time>2020-08-16T11:02:39Z</time>
      </trkpt>
      <trkpt lat="45.03015" lon="3.54125">
        <ele>915.9</ele>
        <time>2020-08-16T11:03:54Z</time>
      </trkpt>
      <trkpt lat="45.02922" lon="3.54142">
        <ele>925.2</ele>
        <time>2020-08-16T11:05:04Z</time>
      </trkpt>
      <trkpt lat="45.02852" lon="3.5422">
        <ele>932</ele>
        <time>2020-08-16T11:06:14Z</time>
      </trkpt>
      <trkpt lat="45.0281" lon="3.54343">
        <ele>937.7</ele>
        <time>2020-08-16T11:07:27Z</time>
      </trkpt>
      <trkpt lat="45.02722" lon="3.54382">
        <ele>942.1</ele>
        <time>2020-08-16T11:08:37Z</time>
      </trkpt>
      <trkpt lat="45.02629" lon="3.54398">
        <ele>946.3</ele>
        <time>2020-08-16T11:09:47Z</time>
      </trkpt>
      <trkpt lat="45.02534" lon="3.54404">
        <ele>952</ele>
        <time>2020-08-16T11:10:57Z</time>
      </trkpt>
      <trkpt lat="45.0245" lon="3.54347">
        <ele>960.9</ele>
        <time>2020-08-16T11:12:07Z</time>
      </trkpt>
      <trkpt lat="45.02371" lon="3.5426">
        <ele>968.8</ele>
        <time>2020-08-16T11:13:07Z</time>
      </trkpt>
      <trkpt lat="45.02278" lon="3.54232">
        <ele>977.7</ele>
        <time>2020-08-16T11:14:20Z</time>
      </trkpt>
      <trkpt lat="45.02181" lon="3.5422">
        <ele>986.7</ele>
        <time>2020-08-16T11:15:34Z</time>
      </trkpt>
      <trkpt lat="45.02086" lon="3.54203">
        <ele>997.1</ele>
        <time>2020-08-16T11:16:50Z</time>
      </trkpt>
      <trkpt lat="45.01992" lon="3.54201">
        <ele>1010.8</ele>
        <time>2020-08-16T11:19:51Z</time>
      </trkpt>
      <trkpt lat="45.01885" lon="3.54154">
        <ele>1020.7</ele>
        <time>2020-08-16T11:20:11Z</time>
      </trkpt>
      <trkpt lat="45.0176" lon="3.54149">
        <ele>1019.6</ele>
        <time>2020-08-16T11:20:26Z</time>
      </trkpt>
      <trkpt lat="45.01665" lon="3.54185">
        <ele>1018</ele>
        <time>2020-08-16T11:20:36Z</time>
      </trkpt>
      <trkpt lat="45.01561" lon="3.54189">
        <ele>1016.3</ele>
        <time>2020-08-16T11:20:46Z</time>
      </trkpt>
      <trkpt lat="45.01461" lon="3.54108">
        <ele>1014.2</ele>
        <time>2020-08-16T11:20:56Z</time>
      </trkpt>
      <trkpt lat="45.01355" lon="3.54048">
        <ele>1011.4</ele>
        <time>2020-08-16T11:21:06Z</time>
      </trkpt>
      <trkpt lat="45.01249" lon="3.54">
        <ele>1008.3</ele>
        <time>2020-08-16T11:21:16Z</time>
      </trkpt>
      <trkpt lat="45.01146" lon="3.54">
        <ele>1004.2</ele>
        <time>2020-08-16T11:21:26Z</time>
      </trkpt>
      <trkpt lat="45.01047" lon="3.54041">
        <ele>1000.1</ele>
        <time>2020-08-16T11:21:36Z</time>
      </trkpt>
      <trkpt lat="45.00941" lon="3.54024">
        <ele>997.3</ele>
        <time>2020-08-16T11:21:46Z</time>
      </trkpt>
      <trkpt lat="45.00839" lon="3.5397">
        <ele>995.2</ele>
        <time>2020-08-16T11:21:56Z</time>
      </trkpt>
      <trkpt lat="45.00748" lon="3.53975">
        <ele>991.7</ele>
        <time>2020-08-16T11:22:06Z</time>
      </trkpt>
      <trkpt lat="45.00661" lon="3.54016">
        <ele>987.6</ele>
        <time>2020-08-16T11:22:31Z</time>
      </trkpt>
      <trkpt lat="45.00575" lon="3.54052">
        <ele>980.4</ele>
        <time>2020-08-16T11:23:20Z</time>
      </trkpt>
      <trkpt lat="45.00488" lon="3.54097">
        <ele>977.2</ele>
        <time>2020-08-16T11:24:05Z</time>
      </trkpt>
      <trkpt lat="45.00393" lon="3.54082">
        <ele>976.9</ele>
        <time>2020-08-16T11:25:03Z</time>
      </trkpt>
      <trkpt lat="45.00295" lon="3.54067">
        <ele>979.8</ele>
        <time>2020-08-16T11:26:04Z</time>
      </trkpt>
      <trkpt lat="45.00196" lon="3.54081">
        <ele>982.9</ele>
        <time>2020-08-16T11:26:54Z</time>
      </trkpt>
      <trkpt lat="45.00107" lon="3.54111">
        <ele>986.2</ele>
        <time>2020-08-16T11:27:55Z</time>
      </trkpt>
      <trkpt lat="45.0001" lon="3.54138">
        <ele>991.3</ele>
        <time>2020-08-16T11:29:08Z</time>
      </trkpt>
      <trkpt lat="44.99916" lon="3.5417">
        <ele>996.2</ele>
        <time>2020-08-16T11:30:21Z</time>
      </trkpt>
      <trkpt lat="44.99826" lon="3.54225">
        <ele>999.4</ele>
        <time>2020-08-16T11:31:18Z</time>
      </trkpt>
      <trkpt lat="44.99732" lon="3.5422">
        <ele>1001</ele>
        <time>2020-08-16T11:32:05Z</time>
      </trkpt>
      <trkpt lat="44.99639" lon="3.54189">
        <ele>1003.1</ele>
        <time>2020-08-16T11:33:13Z</time>
      </trkpt>
      <trkpt lat="44.99542" lon="3.54164">
        <ele>1006.9</ele>
        <time>2020-08-16T11:34:19Z</time>
      </trkpt>
      <trkpt lat="44.99444" lon="3.54135">
        <ele>1011.1</ele>
        <time>2020-08-16T11:35:19Z</time>
      </trkpt>
      <trkpt lat="44.99351" lon="3.54105">
        <ele>1015.2</ele>
        <time>2020-08-16T11:35:39Z</time>
      </trkpt>
      <trkpt lat="44.99241" lon="3.54063">
        <ele>1015.6</ele>
        <time>2020-08-16T11:35:54Z</time>
      </trkpt>
      <trkpt lat="44.99138" lon="3.54031">
        <ele>1015.7</ele>
        <time>2020-08-16T11:36:09Z</time>
      </trkpt>
      <trkpt lat="44.99036" lon="3.53994">
        <ele>1015.6</ele>
        <time>2020-08-16T11:36:24Z</time>
      </trkpt>
      <trkpt lat="44.98938" lon="3.5396">
        <ele>1016.5</ele>
        <time>2020-08-16T11:36:39Z</time>
      </trkpt>
      <trkpt lat="44.9884" lon="3.53928">
        <ele>1017.5</ele>
        <time>2020-08-16T11:36:54Z</time>
      </trkpt>
      <trkpt lat="44.98746" lon="3.53898">
        <ele>1018.4</ele>
        <time>2020-08-16T11:37:09Z</time>
      </trkpt>
      <trkpt lat="44.98654" lon="3.53887">
        <ele>1020</ele>
        <time>2020-08-16T11:37:30Z</time>
      </trkpt>
      <trkpt lat="44.98543" lon="3.53922">
        <ele>1020.6</ele>
        <time>2020-08-16T11:37:50Z</time>
      </trkpt>
      <trkpt lat="44.9843" lon="3.53959">
        <ele>1020.1</ele>
        <time>2020-08-16T11:38:10Z</time>
      </trkpt>
      <trkpt lat="44.98342" lon="3.53987">
        <ele>1020.3</ele>
        <time>2020-08-16T11:38:25Z</time>
      </trkpt>
      <trkpt lat="44.98227" lon="3.54023">
        <ele>1020</ele>
        <time>2020-08-16T11:38:45Z</time>
      </trkpt>
      <trkpt lat="44.98134" lon="3.54046">
        <ele>1020.6</ele>
        <time>2020-08-16T11:39:05Z</time>
      </trkpt>
      <trkpt lat="44.98039" lon="3.5406">
        <ele>1019.8</ele>
        <time>2020-08-16T11:39:25Z</time>
      </trkpt>
      <trkpt lat="44.97923" lon="3.5406">
        <ele>1020</ele>
        <time>2020-08-16T11:39:45Z</time>
      </trkpt>
      <trkpt lat="44.97829" lon="3.54043">
        <ele>1020.5</ele>
        <time>2020-08-16T11:40:05Z</time>
      </trkpt>
      <trkpt lat="44.97722" lon="3.54031">
        <ele>1019.5</ele>
        <time>2020-08-16T11:40:25Z</time>
      </trkpt>
      <trkpt lat="44.97604" lon="3.54018">
        <ele>1018</ele>
        <time>2020-08-16T11:40:40Z</time>
      </trkpt>
      <trkpt lat="44.97502" lon="3.53998">
        <ele>1018.2</ele>
        <time>2020-08-16T11:40:55Z</time>
      </trkpt>
      <trkpt lat="44.97396" lon="3.53967">
        <ele>1016.8</ele>
        <time>2020-08-16T11:41:15Z</time>
      </trkpt>
      <trkpt lat="44.97305" lon="3.54001">
        <ele>1016.4</ele>
        <time>2020-08-16T11:41:35Z</time>
      </trkpt>
      <trkpt lat="44.97202" lon="3.54024">
        <ele>1015.6</ele>
        <time>2020-08-16T11:41:55Z</time>
      </trkpt>
      <trkpt lat="44.97108" lon="3.53965">
        <ele>1015.1</ele>
        <time>2020-08-16T11:42:10Z</time>
      </trkpt>
      <trkpt lat="44.96972" lon="3.53941">
        <ele>1015.2</ele>
        <time>2020-08-16T11:42:25Z</time>
      </trkpt>
      <trkpt lat="44.9686" lon="3.5398">
        <ele>1014.4</ele>
        <time>2020-08-16T11:42:40Z</time>
      </trkpt>
      <trkpt lat="44.96787" lon="3.54079">
        <ele>1006.7</ele>
        <time>2020-08-16T11:44:23Z</time>
      </trkpt>
      <trkpt lat="44.96692" lon="3.54154">
        <ele>1004.3</ele>
        <time>2020-08-16T11:44:38Z</time>
      </trkpt>
      <trkpt lat="44.96597" lon="3.54207">
        <ele>1003.6</ele>
        <time>2020-08-16T11:44:53Z</time>
      </trkpt>
      <trkpt lat="44.96505" lon="3.5428">
        <ele>1001.3</ele>
        <time>2020-08-16T11:45:13Z</time>
      </trkpt>
      <trkpt lat="44.96417" lon="3.54308">
        <ele>1000.2</ele>
        <time>2020-08-16T11:45:49Z</time>
      </trkpt>
      <trkpt lat="44.96387" lon="3.54433">
        <ele>999.7</ele>
        <time>2020-08-16T11:46:34Z</time>
      </trkpt>
      <trkpt lat="44.96294" lon="3.54474">
        <ele>1000.2</ele>
        <time>2020-08-16T11:47:33Z</time>
      </trkpt>
      <trkpt lat="44.96198" lon="3.54486">
        <ele>996.6</ele>
        <time>2020-08-16T11:48:34Z</time>
      </trkpt>
      <trkpt lat="44.96114" lon="3.54528">
        <ele>996.4</ele>
        <time>2020-08-16T11:49:31Z</time>
      </trkpt>
      <trkpt lat="44.96037" lon="3.54613">
        <ele>999.5</ele>
        <time>2020-08-16T11:50:33Z</time>
      </trkpt>
      <trkpt lat="44.96109" lon="3.54705">
        <ele>1002.4</ele>
        <time>2020-08-16T11:51:35Z</time>
      </trkpt>
      <trkpt lat="44.96088" lon="3.54835">
        <ele>1006.8</ele>
        <time>2020-08-16T11:52:57Z</time>
      </trkpt>
    </trkseg>
  </trk>
</gpx>